Aérodrome :
LOGIN :

S'inscrire | Disclaimer

   EN    FR    IT 

 










Légende :    VFR   VFR Marginal   IFR   IFR Intensif   IFR Très Intensif
Visi : 
Plafond : 
>= 8 km
>= 3000ft
5 à 8 km
1000 à 3000 ft
1500m à 5 km
500 à 1000 ft
800 à 1500m
200 à 500 ft
< 800m
< 200 ft
Symboles :   Orages  Brouillard  Fortes neiges  Fortes précipitations  Vent > 20 kt
SIGMETs :   Divers  Orages  Givrage  Turbulence  Onde Orograph.  Cendres Volcan.







- Altitude de l'aérodrome : 0 ft


ETEB - Ansbach Army Heliport

DERNIER METAR :
  • 152356Z AUTO 00000KT 9999 CLR 09/05 A3004 RMK AO2 SLP176 T00900050 10182 20089 53006 $

METARs EXPIRÉS :
  • 152256Z AUTO 00000KT 9999 CLR 11/05 A3003 RMK AO2 SLP173 T01110054 402320075 $
  • 152156Z AUTO 00000KT 9999 CLR 11/05 A3003 RMK AO2 SLP175 T01120051 $

TAF TAF ETEB
Valide du 15 à 21h jusqu'au 17 à 03h UTC


152101Z 1521/1703 VRB06KT 9999 SKC QNH2999INS
BECMG 1613/1614 VRB06KT 9999 SCT080 QNH3003INS TX20/1613Z TN08/1606Z
Pas de NOTAMs connus pour ce terrain.



MET'MAP, la Météo Aéronautique d'un coup d'oeil ! - Copyright ORBIFLY Décembre 2007 - Disclaimer

ORBIFLY MET'MAP TEAM :

Programmation & Développement : Alexandra Zaïnal
Conception & Développement : Baudouin d'Aumeries
Co-Programmation & Développement : Marc-Olivier Méhu
Soutien technique & logistique : Manuel Goepfert

Contact : metmap@orbifly.com




SOURCES & CREDITS :

   NOAA